createdAt,value
2023-02-22T00:00:42.904Z,3.30
2023-02-22T00:03:12.968Z,3.47
2023-02-22T00:05:41.387Z,3.03
2023-02-22T00:08:11.776Z,2.67
2023-02-22T00:10:40.106Z,2.90
2023-02-22T00:13:09.752Z,3.17
2023-02-22T00:15:41.443Z,2.80
2023-02-22T00:18:11.425Z,2.73
2023-02-22T00:20:39.908Z,2.90
2023-02-22T00:23:08.898Z,2.70
2023-02-22T00:25:38.700Z,2.80
2023-02-22T00:28:07.866Z,2.97
2023-02-22T00:30:36.356Z,2.83
2023-02-22T00:33:06.162Z,2.43
2023-02-22T00:35:34.578Z,2.70
2023-02-22T00:38:03.472Z,3.17
2023-02-22T00:40:32.513Z,3.37
2023-02-22T00:43:02.898Z,2.80
2023-02-22T00:45:32.230Z,3.30
2023-02-22T00:48:01.014Z,3.20
2023-02-22T00:50:30.432Z,2.70
2023-02-22T00:52:59.391Z,2.70
2023-02-22T00:55:28.595Z,2.60
2023-02-22T00:57:57.078Z,2.30
2023-02-22T01:00:27.741Z,2.57
2023-02-22T01:02:56.877Z,2.67
2023-02-22T01:05:26.438Z,2.33
2023-02-22T01:07:55.695Z,2.33
2023-02-22T01:10:25.191Z,2.13
2023-02-22T01:12:54.522Z,2.50
2023-02-22T01:15:23.939Z,2.10
2023-02-22T01:17:54.559Z,2.50
2023-02-22T01:20:25.505Z,2.60
2023-02-22T01:22:55.408Z,2.33
2023-02-22T01:25:24.535Z,2.10
2023-02-22T01:27:53.108Z,2.40
2023-02-22T01:30:22.864Z,2.20
2023-02-22T01:32:52.938Z,2.40
2023-02-22T01:35:23.983Z,2.07
2023-02-22T01:37:52.307Z,2.00
2023-02-22T01:40:21.805Z,2.27
2023-02-22T01:42:52.836Z,2.83
2023-02-22T01:45:44.040Z,2.17
2023-02-22T01:48:14.744Z,2.20
2023-02-22T01:50:46.874Z,2.63
2023-02-22T01:53:16.927Z,1.80
2023-02-22T01:55:45.465Z,2.27
2023-02-22T01:58:14.598Z,2.37
2023-02-22T02:00:44.826Z,2.43
2023-02-22T02:03:15.998Z,2.53
2023-02-22T02:05:45.923Z,2.40
2023-02-22T02:08:18.204Z,2.00
2023-02-22T02:10:46.638Z,2.57
2023-02-22T02:13:16.128Z,2.30
2023-02-22T02:15:44.934Z,2.17
2023-02-22T02:18:14.481Z,2.17
2023-02-22T02:20:50.212Z,2.03
2023-02-22T02:23:29.370Z,2.23
2023-02-22T02:26:11.896Z,1.80
2023-02-22T02:28:58.693Z,3.10
2023-02-22T02:31:45.806Z,1.80
2023-02-22T02:34:21.941Z,2.03
2023-02-22T02:36:54.431Z,2.13
2023-02-22T02:39:26.562Z,2.20
2023-02-22T02:41:54.995Z,1.80
2023-02-22T02:44:26.346Z,1.80
2023-02-22T02:46:57.814Z,2.10
2023-02-22T02:49:30.972Z,1.87
2023-02-22T02:52:00.375Z,1.77
2023-02-22T02:54:28.777Z,1.80
2023-02-22T02:56:58.117Z,1.63
2023-02-22T02:59:27.986Z,1.67
2023-02-22T03:02:02.281Z,1.93
2023-02-22T03:04:38.156Z,1.70
2023-02-22T03:07:20.818Z,2.03
2023-02-22T03:09:58.775Z,1.70
2023-02-22T03:12:33.796Z,2.07
2023-02-22T03:15:07.890Z,1.87
2023-02-22T03:17:41.672Z,1.60
2023-02-22T03:20:14.637Z,2.10
2023-02-22T03:22:48.208Z,1.87
2023-02-22T03:25:19.300Z,1.97
2023-02-22T03:27:49.326Z,1.90
2023-02-22T03:30:20.319Z,1.87
2023-02-22T03:32:51.453Z,1.97
2023-02-22T03:35:23.466Z,1.73
2023-02-22T03:37:54.026Z,2.30
2023-02-22T03:40:26.484Z,1.60
2023-02-22T03:42:56.750Z,1.80
2023-02-22T03:45:26.536Z,1.70
2023-02-22T03:47:59.290Z,1.87
2023-02-22T03:50:30.948Z,1.77
2023-02-22T03:53:00.173Z,1.70
2023-02-22T03:55:28.886Z,1.53
2023-02-22T03:57:58.832Z,1.90
2023-02-22T04:00:28.658Z,1.83
2023-02-22T04:02:57.225Z,2.07
2023-02-22T04:05:26.233Z,1.70
2023-02-22T04:07:56.766Z,2.20
2023-02-22T04:10:25.854Z,1.70
2023-02-22T04:12:54.187Z,2.57
2023-02-22T04:15:26.111Z,1.57
2023-02-22T04:17:54.425Z,2.10
2023-02-22T04:20:25.594Z,2.00
2023-02-22T04:22:54.557Z,2.40
2023-02-22T04:25:25.039Z,2.20
2023-02-22T04:27:53.531Z,2.10
2023-02-22T04:30:22.291Z,1.97
2023-02-22T04:32:50.992Z,2.10
2023-02-22T04:35:19.420Z,2.07
2023-02-22T04:37:47.820Z,1.63
2023-02-22T04:40:17.937Z,2.00
2023-02-22T04:42:47.784Z,1.87
2023-02-22T04:45:16.195Z,1.83
2023-02-22T04:47:44.596Z,2.13
2023-02-22T04:50:13.328Z,1.73
2023-02-22T04:52:42.434Z,2.00
2023-02-22T04:55:10.907Z,1.77
2023-02-22T04:57:39.233Z,1.83
2023-02-22T05:00:10.511Z,1.93
2023-02-22T05:02:40.349Z,2.57
2023-02-22T05:05:09.055Z,2.43
2023-02-22T05:07:37.689Z,2.30
2023-02-22T05:10:06.274Z,1.80
2023-02-22T05:12:34.706Z,2.10
2023-02-22T05:15:03.059Z,1.83
2023-02-22T05:17:32.874Z,1.67
2023-02-22T05:20:01.601Z,1.70
2023-02-22T05:22:30.016Z,2.70
2023-02-22T05:24:58.603Z,2.20
2023-02-22T05:27:26.943Z,1.60
2023-02-22T05:29:55.257Z,1.60
2023-02-22T05:32:23.726Z,2.47
2023-02-22T05:34:53.468Z,2.33
2023-02-22T05:37:21.778Z,1.60
2023-02-22T05:39:51.006Z,2.53
2023-02-22T05:42:20.040Z,1.77
2023-02-22T05:44:48.396Z,2.30
2023-02-22T05:47:16.695Z,2.80
2023-02-22T05:49:45.045Z,1.97
2023-02-22T05:52:14.774Z,3.10
2023-02-22T05:54:43.561Z,1.93
2023-02-22T05:57:11.895Z,4.03
2023-02-22T05:59:40.268Z,1.90
2023-02-22T06:02:08.640Z,1.67
2023-02-22T06:04:37.084Z,1.90
2023-02-22T06:07:05.554Z,2.37
2023-02-22T06:09:35.311Z,2.40
2023-02-22T06:12:03.830Z,2.23
2023-02-22T06:14:32.122Z,1.90
2023-02-22T06:17:00.932Z,2.20
2023-02-22T06:19:29.572Z,1.70
2023-02-22T06:21:59.906Z,2.40
2023-02-22T06:24:28.452Z,2.70
2023-02-22T06:26:58.900Z,2.87
2023-02-22T06:29:27.366Z,2.00
2023-02-22T06:31:55.847Z,2.23
2023-02-22T06:34:24.281Z,2.20
2023-02-22T06:36:52.587Z,1.97
2023-02-22T06:39:21.088Z,2.43
2023-02-22T06:41:51.416Z,2.50
2023-02-22T06:44:21.048Z,2.10
2023-02-22T06:46:51.000Z,2.07
2023-02-22T06:49:19.544Z,2.50
2023-02-22T06:51:48.554Z,2.57
2023-02-22T06:54:16.988Z,2.10
2023-02-22T06:56:45.357Z,2.70
2023-02-22T06:59:13.739Z,2.70
2023-02-22T07:01:44.728Z,2.43
2023-02-22T07:04:13.104Z,2.37
2023-02-22T07:06:41.409Z,2.40
2023-02-22T07:09:10.537Z,2.30
2023-02-22T07:11:40.199Z,1.77
2023-02-22T07:14:08.622Z,2.53
2023-02-22T07:16:37.197Z,2.90
2023-02-22T07:19:06.894Z,3.50
2023-02-22T07:21:35.298Z,2.90
2023-02-22T07:24:05.455Z,6.37
2023-02-22T07:26:40.351Z,2.60
2023-02-22T07:29:08.677Z,3.70
2023-02-22T07:31:37.411Z,5.07
2023-02-22T07:34:07.219Z,2.50
2023-02-22T07:36:35.553Z,2.00
2023-02-22T07:39:03.945Z,2.07
2023-02-22T07:41:32.191Z,2.10
2023-02-22T07:44:00.586Z,2.40
2023-02-22T07:46:29.786Z,2.30
2023-02-22T07:48:58.121Z,2.10
2023-02-22T07:51:27.821Z,2.13
2023-02-22T07:53:56.256Z,2.50
2023-02-22T07:56:24.632Z,2.13
2023-02-22T07:58:52.983Z,3.23
2023-02-22T08:01:21.234Z,1.90
2023-02-22T08:03:49.514Z,2.10
2023-02-22T08:06:18.043Z,2.20
2023-02-22T08:08:47.722Z,2.10
2023-02-22T08:11:16.477Z,2.23
2023-02-22T08:13:45.075Z,2.07
2023-02-22T08:16:13.531Z,1.83
2023-02-22T08:18:42.056Z,2.00
2023-02-22T08:21:10.672Z,2.10
2023-02-22T08:23:39.027Z,2.20
2023-02-22T08:26:09.606Z,2.90
2023-02-22T08:28:38.006Z,2.80
2023-02-22T08:31:07.673Z,3.40
2023-02-22T08:33:36.225Z,12.93
2023-02-22T08:36:04.737Z,9.33
2023-02-22T08:38:34.114Z,3.53
2023-02-22T08:41:02.460Z,5.30
2023-02-22T08:43:32.329Z,3.20
2023-02-22T08:46:00.879Z,3.83
2023-02-22T08:48:29.267Z,2.30
2023-02-22T08:50:58.119Z,2.07
2023-02-22T08:53:26.507Z,2.10
2023-02-22T08:55:54.828Z,2.43
2023-02-22T08:58:23.076Z,2.13
2023-02-22T09:00:53.015Z,1.93
2023-02-22T09:03:21.412Z,1.77
2023-02-22T09:05:50.043Z,1.80
2023-02-22T09:08:18.711Z,2.03
2023-02-22T09:10:47.399Z,1.60
2023-02-22T09:13:15.776Z,1.70
2023-02-22T09:15:44.206Z,2.10
2023-02-22T09:18:15.317Z,1.87
2023-02-22T09:20:43.804Z,1.80
2023-02-22T09:23:12.212Z,1.57
2023-02-22T09:25:40.844Z,1.60
2023-02-22T09:28:09.297Z,1.70
2023-02-22T09:30:38.255Z,2.50
2023-02-22T09:33:10.115Z,1.53
2023-02-22T09:35:42.457Z,1.80
2023-02-22T09:38:11.766Z,1.57
2023-02-22T09:40:45.053Z,1.10
2023-02-22T09:43:21.860Z,1.57
2023-02-22T09:45:56.101Z,1.23
2023-02-22T09:48:25.590Z,1.37
2023-02-22T09:50:59.812Z,1.30
2023-02-22T09:53:30.540Z,1.30
2023-02-22T09:56:00.982Z,1.53
2023-02-22T09:58:33.798Z,1.40
2023-02-22T10:01:10.018Z,1.47
2023-02-22T10:03:42.924Z,1.07
2023-02-22T10:06:14.938Z,1.20
2023-02-22T10:08:44.931Z,0.90
2023-02-22T10:11:19.143Z,1.13
2023-02-22T10:13:51.322Z,1.30
2023-02-22T10:16:24.005Z,0.90
2023-02-22T10:18:57.221Z,1.07
2023-02-22T10:21:36.932Z,1.30
2023-02-22T10:24:10.899Z,1.20
2023-02-22T10:26:42.859Z,1.20
2023-02-22T10:29:15.482Z,1.37
2023-02-22T10:31:45.906Z,1.40
2023-02-22T10:34:16.488Z,1.37
2023-02-22T10:36:49.014Z,1.20
2023-02-22T10:39:21.972Z,1.30
2023-02-22T10:41:51.713Z,1.40
2023-02-22T10:44:20.198Z,1.47
2023-02-22T10:46:49.183Z,1.20
2023-02-22T10:49:20.620Z,1.23
2023-02-22T10:51:50.553Z,1.23
2023-02-22T10:54:26.990Z,1.30
2023-02-22T10:56:56.834Z,1.20
2023-02-22T10:59:29.309Z,1.33
2023-02-22T11:01:57.894Z,1.13
2023-02-22T11:04:26.372Z,1.53
2023-02-22T11:07:09.702Z,1.07
2023-02-22T11:09:51.238Z,1.50
2023-02-22T11:12:20.986Z,1.20
2023-02-22T11:14:49.680Z,1.50
2023-02-22T11:17:20.372Z,1.40
2023-02-22T11:19:49.418Z,1.23
2023-02-22T11:22:23.015Z,1.25
2023-02-22T11:24:58.170Z,0.97
2023-02-22T11:27:38.799Z,1.20
2023-02-22T11:30:24.917Z,1.38
2023-02-22T11:32:55.343Z,1.30
2023-02-22T11:35:36.274Z,1.20
2023-02-22T11:38:17.347Z,1.50
2023-02-22T11:40:47.249Z,1.33
2023-02-22T11:43:17.477Z,1.10
2023-02-22T11:46:02.203Z,1.40
2023-02-22T11:48:31.819Z,0.90
2023-02-22T11:51:05.129Z,1.10
2023-02-22T11:53:42.008Z,1.27
2023-02-22T11:56:20.593Z,1.35
2023-02-22T11:58:54.154Z,1.33
2023-02-22T12:01:27.725Z,1.10
2023-02-22T12:04:26.401Z,1.13
2023-02-22T12:06:59.055Z,1.13
2023-02-22T12:09:34.132Z,1.00
2023-02-22T12:12:09.786Z,1.20
2023-02-22T12:14:42.968Z,1.38
2023-02-22T12:17:19.096Z,1.40
2023-02-22T12:19:49.160Z,1.10
2023-02-22T12:22:20.048Z,1.10
2023-02-22T12:24:57.949Z,0.98
2023-02-22T12:27:35.698Z,1.17
2023-02-22T12:30:06.981Z,1.13
2023-02-22T12:32:41.651Z,1.08
2023-02-22T12:35:14.981Z,1.27
2023-02-22T12:37:50.660Z,1.40
2023-02-22T12:40:23.538Z,1.25
2023-02-22T12:42:57.608Z,1.30
2023-02-22T12:45:29.820Z,1.30
2023-02-22T12:48:02.095Z,1.47
2023-02-22T12:50:34.476Z,1.30
2023-02-22T12:53:06.176Z,1.37
2023-02-22T12:55:37.224Z,1.40
2023-02-22T12:58:10.792Z,1.40
2023-02-22T13:00:43.992Z,1.23
2023-02-22T13:03:24.052Z,1.50
2023-02-22T13:05:57.047Z,1.30
2023-02-22T13:08:29.635Z,1.30
2023-02-22T13:11:06.610Z,1.03
2023-02-22T13:13:41.111Z,1.53
2023-02-22T13:16:14.681Z,1.20
2023-02-22T13:18:47.911Z,1.37
2023-02-22T13:21:18.795Z,1.40
2023-02-22T13:23:49.854Z,1.20
2023-02-22T13:26:23.836Z,1.27
2023-02-22T13:28:57.666Z,1.40
2023-02-22T13:31:36.255Z,1.37
2023-02-22T13:34:13.175Z,1.00
2023-02-22T13:36:50.549Z,1.10
2023-02-22T13:39:44.115Z,1.20
2023-02-22T13:42:22.949Z,1.07
2023-02-22T13:45:08.214Z,1.30
2023-02-22T13:47:45.040Z,1.33
2023-02-22T13:50:25.346Z,1.40
2023-02-22T13:52:55.241Z,1.30
2023-02-22T13:55:28.000Z,1.40
2023-02-22T13:58:02.597Z,1.30
2023-02-22T14:00:46.613Z,1.30
2023-02-22T14:03:35.985Z,1.07
2023-02-22T14:06:05.846Z,1.27
2023-02-22T14:08:42.096Z,1.40
2023-02-22T14:11:25.334Z,1.00
2023-02-22T14:14:08.516Z,1.10
2023-02-22T14:16:38.639Z,1.60
2023-02-22T14:19:07.570Z,1.10
2023-02-22T14:21:36.407Z,1.30
2023-02-22T14:24:13.442Z,1.23
2023-02-22T14:26:42.871Z,1.30
2023-02-22T14:29:17.348Z,1.03
2023-02-22T14:32:03.465Z,1.50
2023-02-22T14:34:48.765Z,1.10
2023-02-22T14:37:18.804Z,1.10
2023-02-22T14:39:51.031Z,1.23
2023-02-22T14:42:21.636Z,1.40
2023-02-22T14:44:57.000Z,1.20
2023-02-22T14:47:29.440Z,1.07
2023-02-22T14:50:05.068Z,1.20
2023-02-22T14:52:34.726Z,1.47
2023-02-22T14:55:15.549Z,1.20
2023-02-22T14:57:48.689Z,1.03
2023-02-22T15:00:22.704Z,1.13
2023-02-22T15:02:57.295Z,1.07
2023-02-22T15:05:30.248Z,1.03
2023-02-22T15:07:59.814Z,1.40
2023-02-22T15:10:29.985Z,1.20
2023-02-22T15:13:09.761Z,1.27
2023-02-22T15:15:39.292Z,1.83
2023-02-22T15:18:13.221Z,1.20
2023-02-22T15:20:43.008Z,1.40
2023-02-22T15:23:11.454Z,1.40
2023-02-22T15:25:42.082Z,1.23
2023-02-22T15:28:15.779Z,1.90
2023-02-22T15:30:44.344Z,1.40
2023-02-22T15:33:14.979Z,1.33
2023-02-22T15:35:45.124Z,1.87
2023-02-22T15:38:24.038Z,1.40
2023-02-22T15:41:00.862Z,1.40
2023-02-22T15:43:29.953Z,1.47
2023-02-22T15:45:58.569Z,1.40
2023-02-22T15:48:27.396Z,1.87
2023-02-22T15:51:06.790Z,1.53
2023-02-22T15:53:40.991Z,1.67
2023-02-22T15:56:11.877Z,1.70
2023-02-22T15:58:40.305Z,1.97
2023-02-22T16:01:11.030Z,2.77
2023-02-22T16:03:44.947Z,3.60
2023-02-22T16:06:16.032Z,1.97
2023-02-22T16:08:54.701Z,3.57
2023-02-22T16:11:30.003Z,3.97
2023-02-22T16:13:59.709Z,6.53
2023-02-22T16:16:30.608Z,7.50
2023-02-22T16:19:32.903Z,10.87
2023-02-22T16:22:03.842Z,13.53
2023-02-22T16:24:35.824Z,6.70
2023-02-22T16:27:09.062Z,4.30
2023-02-22T16:29:37.449Z,3.60
2023-02-22T16:32:06.521Z,7.27
2023-02-22T16:34:34.911Z,3.30
2023-02-22T16:37:04.674Z,2.93
2023-02-22T16:39:36.111Z,2.00
2023-02-22T16:42:09.681Z,2.17
2023-02-22T16:44:38.076Z,2.00
2023-02-22T16:47:06.429Z,2.07
2023-02-22T16:49:34.863Z,1.50
2023-02-22T16:52:08.359Z,1.70
2023-02-22T16:54:38.327Z,2.30
2023-02-22T16:57:07.075Z,2.07
2023-02-22T16:59:40.177Z,1.93
2023-02-22T17:02:11.653Z,1.80
2023-02-22T17:04:40.290Z,1.53
2023-02-22T17:07:10.465Z,2.30
2023-02-22T17:09:39.613Z,2.13
2023-02-22T17:12:08.287Z,1.50
2023-02-22T17:14:37.385Z,4.50
2023-02-22T17:17:05.787Z,7.03
2023-02-22T17:19:35.523Z,9.60
2023-02-22T17:22:06.199Z,4.43
2023-02-22T17:24:36.069Z,2.70
2023-02-22T17:27:04.496Z,2.27
2023-02-22T17:29:32.879Z,2.13
2023-02-22T17:32:01.360Z,1.97
2023-02-22T17:34:29.888Z,10.80
2023-02-22T17:36:58.267Z,8.00
2023-02-22T17:39:27.725Z,12.43
2023-02-22T17:41:57.815Z,7.37
2023-02-22T17:44:26.345Z,24.50
2023-02-22T17:46:54.711Z,5.53
2023-02-22T17:49:23.091Z,2.50
2023-02-22T17:51:53.259Z,6.97
2023-02-22T17:54:23.050Z,4.37
2023-02-22T17:56:51.501Z,4.40
2023-02-22T17:59:21.360Z,5.43
2023-02-22T18:01:50.022Z,3.40
2023-02-22T18:04:18.448Z,1.87
2023-02-22T18:06:46.801Z,1.50
2023-02-22T18:09:17.955Z,2.10
2023-02-22T18:11:46.379Z,2.10
2023-02-22T18:14:14.834Z,1.93
2023-02-22T18:16:46.780Z,1.63
2023-02-22T18:19:20.443Z,2.10
2023-02-22T18:21:50.647Z,2.37
2023-02-22T18:24:19.024Z,2.40
2023-02-22T18:26:47.560Z,1.83
2023-02-22T18:29:15.990Z,2.37
2023-02-22T18:31:46.383Z,4.60
2023-02-22T18:34:15.822Z,4.47
2023-02-22T18:36:44.247Z,4.10
2023-02-22T18:39:13.225Z,9.20
2023-02-22T18:41:41.719Z,6.03
2023-02-22T18:44:11.069Z,6.73
2023-02-22T18:46:39.521Z,3.60
2023-02-22T18:49:09.269Z,3.20
2023-02-22T18:51:39.910Z,2.10
2023-02-22T18:54:08.271Z,2.80
2023-02-22T18:56:36.649Z,2.10
2023-02-22T18:59:06.561Z,2.83
2023-02-22T19:01:38.667Z,2.47
2023-02-22T19:04:09.642Z,2.60
2023-02-22T19:06:40.134Z,2.50
2023-02-22T19:09:09.398Z,2.47
2023-02-22T19:11:40.166Z,2.43
2023-02-22T19:14:09.670Z,2.50
2023-02-22T19:16:38.071Z,3.43
2023-02-22T19:19:06.701Z,2.40
2023-02-22T19:21:35.137Z,2.70
2023-02-22T19:24:05.214Z,2.70
2023-02-22T19:26:33.625Z,2.80
2023-02-22T19:29:06.294Z,11.53
2023-02-22T19:31:35.403Z,3.73
2023-02-22T19:34:04.415Z,3.17
2023-02-22T19:36:33.148Z,4.10
2023-02-22T19:39:02.695Z,3.03
2023-02-22T19:41:32.928Z,4.80
2023-02-22T19:44:02.979Z,3.60
2023-02-22T19:46:31.466Z,3.83
2023-02-22T19:48:59.962Z,3.90
2023-02-22T19:51:29.503Z,4.53
2023-02-22T19:53:58.899Z,4.90
2023-02-22T19:56:28.493Z,4.23
2023-02-22T19:58:59.559Z,6.20
2023-02-22T20:01:29.856Z,5.20
2023-02-22T20:03:59.961Z,5.67
2023-02-22T20:06:30.639Z,5.77
2023-02-22T20:08:59.153Z,6.90
2023-02-22T20:11:27.493Z,6.07
2023-02-22T20:13:56.629Z,6.10
2023-02-22T20:16:26.483Z,6.20
2023-02-22T20:18:56.068Z,6.17
2023-02-22T20:21:27.827Z,6.07
2023-02-22T20:23:59.255Z,6.10
2023-02-22T20:26:29.230Z,5.93
2023-02-22T20:28:57.557Z,5.90
2023-02-22T20:31:29.338Z,6.80
2023-02-22T20:33:59.270Z,6.20
2023-02-22T20:36:28.804Z,5.60
2023-02-22T20:38:58.383Z,6.83
2023-02-22T20:41:27.950Z,7.07
2023-02-22T20:43:56.683Z,7.10
2023-02-22T20:46:25.562Z,7.13
2023-02-22T20:48:57.341Z,6.67
2023-02-22T20:51:25.781Z,7.50
2023-02-22T20:53:54.112Z,8.23
2023-02-22T20:56:23.433Z,7.10
2023-02-22T20:58:52.184Z,6.43
2023-02-22T21:01:22.478Z,7.20
2023-02-22T21:03:51.262Z,6.30
2023-02-22T21:06:21.928Z,5.63
2023-02-22T21:08:53.638Z,6.70
2023-02-22T21:11:22.468Z,6.63
2023-02-22T21:13:50.957Z,5.63
2023-02-22T21:16:20.364Z,6.07
2023-02-22T21:18:48.679Z,5.40
2023-02-22T21:21:17.325Z,5.67
2023-02-22T21:23:50.783Z,5.70
2023-02-22T21:26:23.504Z,6.00
2023-02-22T21:28:52.119Z,5.47
2023-02-22T21:31:21.595Z,6.27
2023-02-22T21:33:51.208Z,5.73
2023-02-22T21:36:20.026Z,6.60
2023-02-22T21:38:53.241Z,5.63
2023-02-22T21:41:22.326Z,7.80
2023-02-22T21:43:51.376Z,6.20
2023-02-22T21:46:20.149Z,5.50
2023-02-22T21:48:49.447Z,5.57
2023-02-22T21:51:18.966Z,6.23
2023-02-22T21:53:47.818Z,5.20
2023-02-22T21:56:19.012Z,6.50
2023-02-22T21:58:47.312Z,5.10
2023-02-22T22:01:17.614Z,6.37
2023-02-22T22:03:46.634Z,7.07
2023-02-22T22:06:15.779Z,6.87
2023-02-22T22:08:46.156Z,6.20
2023-02-22T22:11:17.736Z,6.23
2023-02-22T22:13:49.114Z,6.73
2023-02-22T22:16:18.462Z,6.10
2023-02-22T22:18:47.351Z,6.73
2023-02-22T22:21:17.940Z,6.33
2023-02-22T22:23:47.582Z,6.20
2023-02-22T22:26:17.148Z,7.43
2023-02-22T22:28:47.151Z,7.30
2023-02-22T22:31:18.072Z,7.37
2023-02-22T22:33:47.349Z,7.60
2023-02-22T22:36:16.849Z,8.17
2023-02-22T22:38:47.383Z,6.97
2023-02-22T22:41:16.929Z,8.07
2023-02-22T22:43:46.161Z,7.27
2023-02-22T22:46:15.167Z,7.70
2023-02-22T22:48:47.212Z,7.60
2023-02-22T22:51:18.298Z,6.77
2023-02-22T22:53:48.245Z,7.40
2023-02-22T22:56:18.729Z,7.17
2023-02-22T22:58:50.320Z,7.47
2023-02-22T23:01:19.738Z,6.73
2023-02-22T23:03:55.107Z,6.47
2023-02-22T23:06:25.757Z,7.67
2023-02-22T23:09:00.204Z,8.70
2023-02-22T23:11:29.430Z,8.10
2023-02-22T23:13:59.426Z,7.70
2023-02-22T23:16:27.768Z,9.23
2023-02-22T23:18:58.712Z,7.57
2023-02-22T23:21:27.187Z,8.10
2023-02-22T23:23:59.305Z,8.03
2023-02-22T23:26:27.889Z,7.90
2023-02-22T23:28:57.423Z,7.47
2023-02-22T23:31:25.950Z,7.60
2023-02-22T23:33:55.726Z,7.80
2023-02-22T23:36:25.880Z,8.70
2023-02-22T23:38:54.600Z,8.67
2023-02-22T23:41:25.141Z,8.23
2023-02-22T23:43:53.877Z,8.17
2023-02-22T23:46:22.459Z,8.00
2023-02-22T23:48:51.950Z,8.50
2023-02-22T23:51:25.103Z,7.83
2023-02-22T23:53:55.767Z,8.40
2023-02-22T23:56:24.881Z,10.47
2023-02-22T23:58:57.061Z,9.20
